Time;durP1;ratioP1;P1;durP2;ratioP2;P2;SDS_P1;SDS_P2;PMS_P1;PMS_P2;Temp;Humidity;BMP_temperature;BMP_pressure;BME280_temperature;BME280_humidity;BME280_pressure;Samples;Min_cycle;Max_cycle;Signal;HPM_P1;HPM_P2
2021/11/26 00:01:42;;;;;;;28.48;15.85;;;4.70;99.90;;;;;;5072595;28;20056;-62
2021/11/26 00:04:09;;;;;;;30.98;17.77;;;4.70;99.90;;;;;;5073976;28;20134;-62
2021/11/26 00:06:35;;;;;;;25.45;15.82;;;4.60;99.90;;;;;;5085619;28;20081;-62
2021/11/26 00:09:01;;;;;;;28.52;16.35;;;4.70;99.90;;;;;;5054117;28;20020;-62
2021/11/26 00:11:27;;;;;;;26.52;15.75;;;4.70;99.90;;;;;;5062822;28;20032;-62
2021/11/26 00:14:11;;;;;;;26.98;16.35;;;4.60;99.90;;;;;;5071768;28;20071;-62
2021/11/26 00:16:40;;;;;;;29.13;16.40;;;4.60;99.90;;;;;;5078536;28;20025;-62
2021/11/26 00:19:06;;;;;;;27.92;16.90;;;4.60;99.90;;;;;;5071846;28;20027;-63
2021/11/26 00:21:35;;;;;;;27.77;16.98;;;4.60;99.90;;;;;;5086274;28;20170;-63
2021/11/26 00:24:01;;;;;;;29.15;16.58;;;4.60;99.90;;;;;;5091116;28;20024;-63
2021/11/26 00:26:27;;;;;;;28.50;17.50;;;4.60;99.90;;;;;;5071986;28;20016;-63
2021/11/26 00:28:53;;;;;;;28.08;17.25;;;4.50;99.90;;;;;;5070937;28;20020;-63
2021/11/26 00:31:19;;;;;;;26.20;15.80;;;4.60;99.90;;;;;;5072330;28;20158;-62
2021/11/26 00:33:45;;;;;;;30.48;17.55;;;4.60;99.90;;;;;;5072439;28;20103;-64
2021/11/26 00:36:10;;;;;;;26.10;15.82;;;4.60;99.90;;;;;;5085078;28;20365;-62
2021/11/26 00:38:36;;;;;;;27.83;16.38;;;4.50;99.90;;;;;;5092267;28;20024;-62
2021/11/26 00:41:02;;;;;;;28.73;17.15;;;4.50;99.90;;;;;;5091528;28;20038;-63
2021/11/26 00:43:29;;;;;;;28.80;15.32;;;4.50;99.90;;;;;;5091215;28;20032;-65
2021/11/26 00:45:55;;;;;;;29.73;17.70;;;4.50;99.90;;;;;;5090508;28;20042;-62
2021/11/26 00:48:22;;;;;;;28.48;17.35;;;4.50;99.90;;;;;;5070193;28;20032;-62
2021/11/26 00:50:48;;;;;;;30.50;17.08;;;4.40;99.90;;;;;;5069312;28;20108;-62
2021/11/26 00:53:14;;;;;;;30.35;17.73;;;4.40;99.90;;;;;;5089439;28;20024;-61
2021/11/26 00:55:40;;;;;;;29.02;17.17;;;4.10;99.90;;;;;;5091247;28;20028;-62
2021/11/26 00:58:05;;;;;;;33.75;17.98;;;4.20;99.90;;;;;;5076044;28;20361;-63
2021/11/26 01:00:31;;;;;;;29.38;17.05;;;4.20;99.90;;;;;;5071967;28;20032;-62
2021/11/26 01:02:58;;;;;;;30.73;18.33;;;3.90;99.90;;;;;;5066924;28;20021;-62
2021/11/26 01:05:23;;;;;;;28.52;17.48;;;3.90;99.90;;;;;;5081982;28;20020;-62
2021/11/26 01:07:49;;;;;;;33.78;18.70;;;3.70;99.90;;;;;;5090159;28;20020;-62
2021/11/26 01:10:18;;;;;;;30.75;18.27;;;3.80;99.90;;;;;;5073172;28;20440;-63
2021/11/26 01:12:44;;;;;;;34.00;19.63;;;3.70;99.90;;;;;;5090148;28;20027;-63
2021/11/26 01:15:13;;;;;;;31.98;18.52;;;3.80;99.90;;;;;;5069597;28;20462;-63
2021/11/26 01:17:41;;;;;;;30.05;17.65;;;3.60;99.90;;;;;;5063105;28;20024;-63
2021/11/26 01:20:09;;;;;;;31.27;18.98;;;3.70;99.90;;;;;;5080668;28;20347;-63
2021/11/26 01:22:34;;;;;;;33.92;18.10;;;3.60;99.90;;;;;;5069505;28;20072;-63
2021/11/26 01:25:00;;;;;;;32.90;19.00;;;3.60;99.90;;;;;;5072411;28;20082;-63
2021/11/26 01:27:26;;;;;;;27.75;16.80;;;3.60;99.90;;;;;;5081321;28;20082;-63
2021/11/26 01:29:51;;;;;;;34.65;19.35;;;3.60;99.90;;;;;;5070877;28;20430;-63
2021/11/26 01:32:17;;;;;;;30.10;18.20;;;3.50;99.90;;;;;;5086262;28;20077;-62
2021/11/26 01:34:43;;;;;;;33.50;19.48;;;3.50;99.90;;;;;;5077474;28;20062;-63
2021/11/26 01:37:08;;;;;;;30.73;19.38;;;3.40;99.90;;;;;;5089108;28;20078;-63
2021/11/26 01:39:34;;;;;;;28.85;16.55;;;3.50;99.90;;;;;;5078126;28;20119;-62
2021/11/26 01:42:00;;;;;;;33.90;19.55;;;3.70;99.90;;;;;;5070469;28;20060;-62
2021/11/26 01:44:25;;;;;;;39.85;18.48;;;3.50;99.90;;;;;;5059856;28;20028;-62
2021/11/26 01:46:51;;;;;;;33.38;18.45;;;3.40;99.90;;;;;;5058800;28;20052;-63
2021/11/26 01:49:17;;;;;;;33.00;16.70;;;3.40;99.90;;;;;;5090613;28;20043;-62
2021/11/26 01:51:42;;;;;;;33.70;18.52;;;3.50;99.90;;;;;;5084098;28;20020;-62
2021/11/26 01:54:09;;;;;;;34.03;18.08;;;3.50;99.90;;;;;;5077176;28;20029;-61
2021/11/26 01:56:34;;;;;;;37.63;19.15;;;3.40;99.90;;;;;;5088068;28;20114;-62
2021/11/26 01:59:01;;;;;;;33.67;19.30;;;3.40;99.90;;;;;;5070478;28;20155;-62
2021/11/26 02:01:27;;;;;;;35.58;19.70;;;3.40;99.90;;;;;;5083524;28;20035;-61
2021/11/26 02:03:53;;;;;;;37.70;19.92;;;3.40;99.90;;;;;;5089355;28;20385;-61
2021/11/26 02:06:19;;;;;;;34.50;19.23;;;3.30;99.90;;;;;;5078811;28;20024;-63
2021/11/26 02:08:45;;;;;;;33.53;19.20;;;3.40;99.90;;;;;;5077806;28;20133;-63
2021/11/26 02:11:11;;;;;;;33.65;18.83;;;3.40;99.90;;;;;;5070599;28;20041;-62
2021/11/26 02:13:37;;;;;;;32.78;18.33;;;3.20;99.90;;;;;;5070687;28;20123;-62
2021/11/26 02:16:04;;;;;;;33.45;18.55;;;3.20;99.90;;;;;;5070427;28;20103;-62
2021/11/26 02:18:30;;;;;;;33.67;19.85;;;3.20;99.90;;;;;;5081125;28;20489;-62
2021/11/26 02:20:56;;;;;;;38.22;20.67;;;3.20;99.90;;;;;;5071221;28;20469;-62
2021/11/26 02:23:22;;;;;;;40.50;20.52;;;3.30;99.90;;;;;;5069066;28;20025;-61
2021/11/26 02:25:48;;;;;;;36.85;19.50;;;3.30;99.90;;;;;;5073970;28;20070;-63
2021/11/26 02:28:16;;;;;;;36.95;19.25;;;3.20;99.90;;;;;;5076457;28;20101;-62
2021/11/26 02:30:42;;;;;;;32.20;18.60;;;3.30;99.90;;;;;;5081076;28;20024;-62
2021/11/26 02:33:14;;;;;;;30.25;17.15;;;3.40;99.90;;;;;;5074033;28;20032;-62
2021/11/26 02:35:41;;;;;;;31.58;18.08;;;3.50;99.90;;;;;;5056406;28;20074;-62
2021/11/26 02:38:09;;;;;;;36.20;19.98;;;3.60;99.90;;;;;;5071783;28;20446;-62
2021/11/26 02:40:38;;;;;;;33.47;18.83;;;3.60;99.90;;;;;;5074342;28;20021;-62
2021/11/26 02:43:03;;;;;;;33.15;19.38;;;3.60;99.90;;;;;;5090015;28;20070;-62
2021/11/26 02:45:29;;;;;;;32.50;18.38;;;3.60;99.90;;;;;;5093796;28;20465;-62
2021/11/26 02:47:56;;;;;;;31.58;18.83;;;3.60;99.90;;;;;;5072317;28;20072;-63
2021/11/26 02:50:24;;;;;;;32.40;18.17;;;3.70;99.90;;;;;;5071462;28;20450;-62
2021/11/26 02:52:49;;;;;;;34.97;20.15;;;3.70;99.90;;;;;;5091263;28;20502;-62
2021/11/26 02:55:21;;;;;;;31.63;17.98;;;3.70;99.90;;;;;;5064517;28;20120;-63
2021/11/26 02:57:47;;;;;;;32.85;19.15;;;3.70;99.90;;;;;;5081444;28;20025;-62
2021/11/26 03:00:16;;;;;;;48.45;19.10;;;3.60;99.90;;;;;;5064661;28;20024;-62
2021/11/26 03:02:41;;;;;;;30.67;18.15;;;3.70;99.90;;;;;;5080353;28;20025;-62
2021/11/26 03:05:07;;;;;;;34.65;19.48;;;3.70;99.90;;;;;;5065887;28;20031;-62
2021/11/26 03:07:33;;;;;;;36.08;18.73;;;3.70;99.90;;;;;;5062899;28;20020;-63
2021/11/26 03:10:00;;;;;;;33.30;19.42;;;3.70;99.90;;;;;;5088366;28;20519;-62
2021/11/26 03:12:26;;;;;;;36.25;19.98;;;3.70;99.90;;;;;;5078618;28;20029;-62
2021/11/26 03:14:52;;;;;;;36.97;18.88;;;3.70;99.90;;;;;;5088815;28;20032;-61
2021/11/26 03:17:18;;;;;;;38.85;19.73;;;3.60;99.90;;;;;;5090890;28;20034;-62
2021/11/26 03:19:44;;;;;;;33.47;18.95;;;3.60;99.90;;;;;;5074939;28;20172;-62
2021/11/26 03:22:11;;;;;;;31.75;18.67;;;3.70;99.90;;;;;;5072100;28;20481;-62
2021/11/26 03:24:37;;;;;;;33.47;19.17;;;3.60;99.90;;;;;;5074976;28;20066;-62
2021/11/26 03:27:02;;;;;;;34.58;20.38;;;3.60;99.90;;;;;;5086127;28;20086;-63
2021/11/26 03:29:28;;;;;;;36.85;20.02;;;3.50;99.90;;;;;;5080278;28;20066;-62
2021/11/26 03:31:54;;;;;;;35.08;19.40;;;3.40;99.90;;;;;;5093318;28;20454;-62
2021/11/26 03:34:19;;;;;;;37.92;20.02;;;3.20;99.90;;;;;;5086133;28;20043;-62
2021/11/26 03:36:45;;;;;;;33.25;19.90;;;3.20;99.90;;;;;;5079156;28;20118;-62
2021/11/26 03:39:11;;;;;;;33.28;21.05;;;3.20;99.90;;;;;;5086253;28;20403;-63
2021/11/26 03:41:37;;;;;;;38.28;20.80;;;3.20;99.90;;;;;;5073755;28;20020;-62
2021/11/26 03:44:03;;;;;;;36.53;18.95;;;3.20;99.90;;;;;;5091728;28;20024;-62
2021/11/26 03:46:28;;;;;;;34.83;19.08;;;3.20;99.90;;;;;;5074403;28;20170;-62
2021/11/26 03:48:54;;;;;;;35.33;19.35;;;3.10;99.90;;;;;;5072893;28;20109;-62
2021/11/26 03:51:20;;;;;;;36.35;18.80;;;3.00;99.90;;;;;;5071992;28;20484;-62
2021/11/26 03:53:45;;;;;;;33.85;18.83;;;3.00;99.90;;;;;;5072872;28;20021;-63
2021/11/26 03:56:11;;;;;;;34.45;20.52;;;3.10;99.90;;;;;;5064719;28;20169;-62
2021/11/26 03:58:37;;;;;;;31.13;18.70;;;3.10;99.90;;;;;;5090371;28;20066;-62
2021/11/26 04:01:02;;;;;;;42.05;20.42;;;3.00;99.90;;;;;;5074092;28;20107;-63
2021/11/26 04:03:28;;;;;;;40.13;21.67;;;3.10;99.90;;;;;;5092583;28;20023;-62
2021/11/26 04:05:53;;;;;;;37.60;21.10;;;3.00;99.90;;;;;;5092384;28;20028;-62
2021/11/26 04:08:19;;;;;;;35.80;20.10;;;3.00;99.90;;;;;;5085121;28;20020;-62
2021/11/26 04:10:45;;;;;;;37.13;20.10;;;3.10;99.90;;;;;;5091834;28;20338;-62
2021/11/26 04:13:13;;;;;;;36.60;19.30;;;3.10;99.90;;;;;;5091099;28;20026;-62
2021/11/26 04:15:38;;;;;;;33.92;19.30;;;3.20;99.90;;;;;;5089966;28;20365;-62
2021/11/26 04:18:06;;;;;;;34.03;19.20;;;3.30;99.90;;;;;;5080068;28;20042;-62
2021/11/26 04:20:32;;;;;;;39.63;20.60;;;3.20;99.90;;;;;;5077100;28;20024;-62
2021/11/26 04:22:59;;;;;;;36.80;21.08;;;3.10;99.90;;;;;;5078845;28;20408;-63
2021/11/26 04:25:25;;;;;;;36.83;18.52;;;3.10;99.90;;;;;;5080096;28;20016;-62
2021/11/26 04:27:51;;;;;;;31.35;18.25;;;3.10;99.90;;;;;;5079073;28;20161;-62
2021/11/26 04:30:19;;;;;;;36.90;19.35;;;3.00;99.90;;;;;;5071437;28;20099;-62
2021/11/26 04:32:46;;;;;;;35.78;18.92;;;3.10;99.90;;;;;;5058186;28;20111;-62
2021/11/26 04:35:13;;;;;;;34.97;18.63;;;3.00;99.90;;;;;;5060933;28;20032;-62
2021/11/26 04:37:39;;;;;;;34.00;18.50;;;3.00;99.90;;;;;;5091657;28;20028;-62
2021/11/26 04:40:08;;;;;;;36.45;19.98;;;3.00;99.90;;;;;;5077777;28;20024;-63
2021/11/26 04:42:34;;;;;;;36.75;20.63;;;3.10;99.90;;;;;;5072605;28;20050;-63
2021/11/26 04:45:00;;;;;;;32.78;19.05;;;3.00;99.90;;;;;;5072675;28;20031;-63
2021/11/26 04:47:25;;;;;;;35.45;19.67;;;3.00;99.90;;;;;;5063618;28;20021;-62
2021/11/26 04:49:51;;;;;;;34.70;20.17;;;3.00;99.90;;;;;;5057189;28;20468;-62
2021/11/26 04:52:17;;;;;;;35.22;19.08;;;3.10;99.90;;;;;;5071459;28;20061;-63
2021/11/26 04:54:42;;;;;;;32.33;18.35;;;3.20;99.90;;;;;;5071225;28;20071;-65
2021/11/26 04:57:08;;;;;;;40.60;19.17;;;3.20;99.90;;;;;;5071932;28;20028;-63
2021/11/26 04:59:33;;;;;;;34.70;17.65;;;3.30;99.90;;;;;;5079229;28;20078;-62
2021/11/26 05:01:59;;;;;;;35.22;18.85;;;3.20;99.90;;;;;;5071582;28;20386;-61
2021/11/26 05:04:25;;;;;;;41.58;20.52;;;3.10;99.90;;;;;;5072898;28;20055;-62
2021/11/26 05:06:50;;;;;;;35.80;20.63;;;3.20;99.90;;;;;;5088575;28;20111;-62
2021/11/26 05:09:16;;;;;;;39.00;22.17;;;3.10;99.90;;;;;;5055367;28;20036;-62
2021/11/26 05:11:42;;;;;;;32.70;19.15;;;3.00;99.90;;;;;;5071509;28;20016;-62
2021/11/26 05:14:09;;;;;;;36.42;19.85;;;3.00;99.90;;;;;;5087470;28;20034;-62
2021/11/26 05:16:35;;;;;;;38.40;20.20;;;3.10;99.90;;;;;;5080913;28;20029;-62
2021/11/26 05:19:01;;;;;;;33.08;19.08;;;3.10;99.90;;;;;;5066818;28;20021;-62
2021/11/26 05:21:26;;;;;;;34.78;19.52;;;3.00;99.90;;;;;;5071433;28;20059;-63
2021/11/26 05:23:53;;;;;;;38.25;21.25;;;3.10;99.90;;;;;;5062382;28;20042;-62
2021/11/26 05:26:19;;;;;;;38.35;20.52;;;3.20;99.90;;;;;;5089798;28;20036;-62
2021/11/26 05:28:45;;;;;;;35.33;18.88;;;3.20;99.90;;;;;;5061361;28;20016;-61
2021/11/26 05:31:11;;;;;;;36.05;19.70;;;3.10;99.90;;;;;;5075187;28;20023;-62
2021/11/26 05:33:36;;;;;;;37.25;21.05;;;3.10;99.90;;;;;;5073165;28;20096;-62
2021/11/26 05:36:02;;;;;;;37.28;20.23;;;3.10;99.90;;;;;;5090383;28;20036;-63
2021/11/26 05:38:28;;;;;;;37.38;19.88;;;3.00;99.90;;;;;;5090140;28;20024;-62
2021/11/26 05:40:54;;;;;;;41.58;21.38;;;3.00;99.90;;;;;;5090816;28;20130;-62
2021/11/26 05:43:19;;;;;;;36.85;20.15;;;2.90;99.90;;;;;;5089767;28;20016;-62
2021/11/26 05:45:46;;;;;;;37.78;18.65;;;2.90;99.90;;;;;;5090486;28;20116;-62
2021/11/26 05:48:12;;;;;;;39.88;21.67;;;3.00;99.90;;;;;;5070586;28;20025;-61
2021/11/26 05:50:38;;;;;;;38.22;21.92;;;3.10;99.90;;;;;;5072702;28;20024;-62
2021/11/26 05:53:04;;;;;;;38.80;21.17;;;3.10;99.90;;;;;;5061894;28;20036;-64
2021/11/26 05:55:31;;;;;;;35.47;19.33;;;3.10;99.90;;;;;;5089675;28;20504;-63
2021/11/26 05:57:58;;;;;;;37.95;19.50;;;3.10;99.90;;;;;;5077066;28;20036;-62
2021/11/26 06:00:26;;;;;;;40.85;20.92;;;3.10;99.90;;;;;;5067780;28;20486;-62
2021/11/26 06:02:52;;;;;;;36.78;19.75;;;3.10;99.90;;;;;;5072631;28;20024;-63
2021/11/26 06:05:19;;;;;;;44.05;22.02;;;3.10;99.90;;;;;;5090750;28;20437;-62
2021/11/26 06:07:44;;;;;;;38.13;20.00;;;3.10;99.90;;;;;;5082203;28;20023;-62
2021/11/26 06:10:12;;;;;;;37.42;19.23;;;3.00;99.90;;;;;;5068319;28;20449;-64
2021/11/26 06:12:40;;;;;;;32.92;19.42;;;3.10;99.90;;;;;;5087016;28;20024;-63
2021/11/26 06:15:07;;;;;;;37.58;20.52;;;3.20;99.90;;;;;;5075666;28;20039;-64
2021/11/26 06:17:32;;;;;;;40.00;20.85;;;3.20;99.90;;;;;;5093599;28;20457;-61
2021/11/26 06:19:58;;;;;;;35.28;20.92;;;3.20;99.90;;;;;;5076013;28;20032;-63
2021/11/26 06:22:24;;;;;;;42.65;21.00;;;3.20;99.90;;;;;;5091519;28;20358;-64
2021/11/26 06:24:49;;;;;;;38.30;20.27;;;3.20;99.90;;;;;;5087617;28;20028;-61
2021/11/26 06:27:15;;;;;;;44.38;20.50;;;3.30;99.90;;;;;;5085475;28;20400;-63
2021/11/26 06:29:41;;;;;;;42.53;20.30;;;3.30;99.90;;;;;;5084256;28;20031;-63
2021/11/26 06:32:06;;;;;;;36.72;18.92;;;3.30;99.90;;;;;;5087040;28;20020;-65
2021/11/26 06:34:32;;;;;;;36.50;20.05;;;3.30;99.90;;;;;;5087206;28;20040;-61
2021/11/26 06:36:58;;;;;;;38.40;20.38;;;3.30;99.90;;;;;;5093554;28;20062;-61
2021/11/26 06:39:24;;;;;;;36.00;18.35;;;3.30;99.90;;;;;;5083625;28;20167;-63
2021/11/26 06:41:50;;;;;;;33.42;18.13;;;3.30;99.90;;;;;;5083212;28;20213;-64
2021/11/26 06:44:16;;;;;;;33.47;18.65;;;3.50;99.90;;;;;;5092793;28;20410;-63
2021/11/26 06:46:42;;;;;;;39.08;20.85;;;3.40;99.90;;;;;;5092801;28;20055;-63
2021/11/26 06:49:07;;;;;;;37.85;20.65;;;3.50;99.90;;;;;;5077581;28;20035;-63
2021/11/26 06:51:33;;;;;;;38.67;21.05;;;3.50;99.90;;;;;;5081906;28;20016;-62
2021/11/26 06:53:59;;;;;;;40.33;22.27;;;3.50;99.90;;;;;;5093190;28;20113;-63
2021/11/26 06:56:25;;;;;;;38.70;20.67;;;3.40;99.90;;;;;;5071478;28;20050;-63
2021/11/26 06:58:53;;;;;;;37.13;19.33;;;3.30;99.90;;;;;;5060553;28;20020;-62
2021/11/26 07:01:19;;;;;;;39.00;20.75;;;3.30;99.90;;;;;;5084891;28;20020;-63
2021/11/26 07:03:44;;;;;;;38.92;21.17;;;3.40;99.90;;;;;;5073580;28;20233;-65
2021/11/26 07:06:10;;;;;;;37.05;20.95;;;3.40;99.90;;;;;;5062131;28;20082;-62
2021/11/26 07:08:36;;;;;;;46.47;21.65;;;3.40;99.90;;;;;;5086810;28;20347;-63
2021/11/26 07:11:01;;;;;;;39.25;20.80;;;3.40;99.90;;;;;;5086644;28;20032;-63
2021/11/26 07:13:27;;;;;;;40.55;19.25;;;3.30;99.90;;;;;;5074028;28;20204;-62
2021/11/26 07:15:53;;;;;;;38.00;19.17;;;3.20;99.90;;;;;;5073328;28;20504;-62
2021/11/26 07:18:18;;;;;;;36.08;19.42;;;3.30;99.90;;;;;;5060302;28;20037;-63
2021/11/26 07:20:44;;;;;;;37.15;20.05;;;3.30;99.90;;;;;;5091455;28;20095;-63
2021/11/26 07:23:10;;;;;;;38.90;21.17;;;3.20;99.90;;;;;;5079866;28;20031;-65
2021/11/26 07:25:35;;;;;;;36.17;19.92;;;3.30;99.90;;;;;;5084393;28;20360;-62
2021/11/26 07:28:01;;;;;;;34.08;18.60;;;3.40;99.90;;;;;;5078304;28;20613;-63
2021/11/26 07:30:27;;;;;;;36.08;19.65;;;3.40;99.90;;;;;;5071675;28;20103;-62
2021/11/26 07:32:52;;;;;;;36.63;19.88;;;3.30;99.90;;;;;;5088432;28;20434;-64
2021/11/26 07:35:19;;;;;;;36.60;20.73;;;3.40;99.90;;;;;;5088726;28;20103;-62
2021/11/26 07:37:44;;;;;;;36.78;19.88;;;3.30;99.90;;;;;;5092467;28;20028;-62
2021/11/26 07:40:15;;;;;;;34.15;19.88;;;3.40;99.90;;;;;;5091455;28;20031;-63
2021/11/26 07:42:42;;;;;;;39.65;20.58;;;3.30;99.90;;;;;;5091692;28;20127;-61
2021/11/26 07:45:10;;;;;;;44.58;19.27;;;3.30;99.90;;;;;;5073591;28;20437;-61
2021/11/26 07:47:36;;;;;;;33.85;18.98;;;3.40;99.90;;;;;;5092079;28;20039;-63
2021/11/26 07:50:03;;;;;;;37.78;20.75;;;3.50;99.90;;;;;;5088512;28;20104;-63
2021/11/26 07:52:29;;;;;;;38.10;20.73;;;3.50;99.90;;;;;;5071248;28;20020;-61
2021/11/26 07:54:54;;;;;;;34.55;18.85;;;3.50;99.90;;;;;;5072585;28;20058;-63
2021/11/26 07:57:20;;;;;;;33.67;18.65;;;3.60;99.90;;;;;;5060388;28;20035;-63
2021/11/26 07:59:46;;;;;;;32.45;19.00;;;3.50;99.90;;;;;;5069300;28;20027;-62
2021/11/26 08:02:12;;;;;;;40.63;18.25;;;3.60;99.90;;;;;;5090801;28;20052;-63
2021/11/26 08:04:37;;;;;;;36.83;20.35;;;3.70;99.90;;;;;;5091639;28;20028;-62
2021/11/26 08:07:04;;;;;;;34.95;18.65;;;3.70;99.90;;;;;;5090338;28;20342;-64
2021/11/26 08:09:29;;;;;;;30.10;18.58;;;3.70;99.90;;;;;;5078438;28;20413;-62
2021/11/26 08:11:55;;;;;;;37.58;18.85;;;3.70;99.90;;;;;;5062750;28;20055;-63
2021/11/26 08:14:21;;;;;;;31.75;18.73;;;3.70;99.90;;;;;;5084552;28;20073;-64
2021/11/26 08:16:49;;;;;;;32.83;19.35;;;4.90;99.90;;;;;;5067625;28;20372;-63
2021/11/26 08:19:15;;;;;;;31.60;17.45;;;4.30;99.90;;;;;;5069677;28;20321;-62
2021/11/26 08:21:41;;;;;;;35.65;17.70;;;4.10;99.90;;;;;;5063709;28;20051;-63
2021/11/26 08:24:10;;;;;;;36.10;20.35;;;4.00;99.90;;;;;;5085058;28;20028;-63
2021/11/26 08:26:36;;;;;;;38.45;21.05;;;4.00;99.90;;;;;;5088025;28;20021;-63
2021/11/26 08:29:03;;;;;;;38.17;20.50;;;3.90;99.90;;;;;;5084781;28;20503;-62
2021/11/26 08:31:30;;;;;;;32.97;19.52;;;3.90;99.90;;;;;;5072146;28;20039;-62
2021/11/26 08:33:56;;;;;;;31.63;18.60;;;4.00;99.90;;;;;;5073051;28;20024;-62
2021/11/26 08:36:23;;;;;;;34.30;19.83;;;3.80;99.90;;;;;;5077498;28;20032;-62
2021/11/26 08:38:50;;;;;;;31.15;18.58;;;4.00;99.90;;;;;;5069158;28;20083;-63
2021/11/26 08:41:15;;;;;;;33.33;18.85;;;3.80;99.90;;;;;;5074769;28;20025;-63
2021/11/26 08:43:42;;;;;;;49.45;20.42;;;3.90;99.90;;;;;;5089590;28;20031;-61
2021/11/26 08:46:07;;;;;;;33.85;18.15;;;3.80;99.90;;;;;;5087154;28;20112;-63
2021/11/26 08:48:33;;;;;;;35.72;19.50;;;3.80;99.90;;;;;;5071407;28;20312;-63
2021/11/26 08:50:59;;;;;;;33.35;18.08;;;3.90;99.90;;;;;;5084643;28;20108;-61
2021/11/26 08:53:24;;;;;;;35.20;18.67;;;3.90;99.90;;;;;;5070176;28;20024;-63
2021/11/26 08:55:53;;;;;;;29.05;17.73;;;4.00;99.90;;;;;;5069779;28;20035;-62
2021/11/26 08:58:19;;;;;;;32.33;18.02;;;3.90;99.90;;;;;;5071614;28;20038;-63
2021/11/26 09:00:45;;;;;;;33.22;19.02;;;4.00;99.90;;;;;;5054075;28;20023;-62
2021/11/26 09:03:13;;;;;;;33.67;19.13;;;4.00;99.90;;;;;;5070020;28;20016;-63
2021/11/26 09:05:39;;;;;;;33.72;19.17;;;4.20;99.90;;;;;;5084205;28;20024;-62
2021/11/26 09:08:05;;;;;;;35.22;18.15;;;4.30;99.90;;;;;;5089269;28;20089;-63
2021/11/26 09:10:35;;;;;;;35.63;19.27;;;4.40;99.90;;;;;;5088225;28;20016;-63
2021/11/26 09:13:01;;;;;;;32.03;18.05;;;4.40;99.90;;;;;;5090014;28;20024;-63
2021/11/26 09:15:27;;;;;;;31.02;18.70;;;4.50;99.90;;;;;;5070083;28;20039;-64
2021/11/26 09:17:53;;;;;;;39.30;18.05;;;4.60;99.90;;;;;;5071511;28;20484;-62
2021/11/26 09:20:20;;;;;;;30.88;17.63;;;4.70;99.90;;;;;;5089862;28;20166;-62
2021/11/26 09:22:46;;;;;;;31.55;18.08;;;4.70;99.90;;;;;;5089986;28;20040;-65
2021/11/26 09:25:12;;;;;;;30.85;16.98;;;4.80;99.90;;;;;;5090359;28;20032;-62
2021/11/26 09:27:38;;;;;;;33.95;17.67;;;4.70;99.90;;;;;;5060956;28;20016;-62
2021/11/26 09:30:05;;;;;;;36.05;18.35;;;4.70;99.90;;;;;;5060782;28;20024;-64
2021/11/26 09:32:31;;;;;;;30.42;17.42;;;4.70;99.90;;;;;;5058960;28;20115;-62
2021/11/26 09:34:57;;;;;;;28.85;17.70;;;4.60;99.90;;;;;;5090100;28;20111;-63
2021/11/26 09:37:22;;;;;;;34.03;16.50;;;4.40;99.90;;;;;;5069644;28;20065;-64
2021/11/26 09:39:48;;;;;;;30.73;16.90;;;4.50;99.90;;;;;;5053788;28;20021;-62
2021/11/26 09:42:14;;;;;;;35.42;17.30;;;4.50;99.90;;;;;;5077394;28;20463;-64
2021/11/26 09:44:43;;;;;;;32.88;17.92;;;4.40;99.90;;;;;;5065919;28;20025;-62
2021/11/26 09:47:09;;;;;;;34.15;19.02;;;4.40;99.90;;;;;;5085002;28;20100;-63
2021/11/26 09:49:35;;;;;;;31.92;19.13;;;4.50;99.90;;;;;;5095918;28;20082;-63
2021/11/26 09:52:01;;;;;;;31.60;17.70;;;4.50;99.90;;;;;;5082462;28;20024;-62
2021/11/26 09:54:27;;;;;;;30.65;17.30;;;4.60;99.90;;;;;;5062745;28;20112;-62
2021/11/26 09:56:53;;;;;;;37.20;17.13;;;4.60;99.90;;;;;;5068216;28;20104;-67
2021/11/26 09:59:19;;;;;;;29.02;16.02;;;6.20;99.90;;;;;;5070876;28;20337;-63
2021/11/26 10:01:45;;;;;;;34.38;17.83;;;5.70;99.90;;;;;;5074356;28;20107;-62
2021/11/26 10:04:20;;;;;;;31.70;17.40;;;5.40;99.90;;;;;;5095244;28;20036;-63
2021/11/26 10:06:48;;;;;;;29.75;17.35;;;5.00;99.90;;;;;;5077178;28;20051;-62
2021/11/26 10:09:21;;;;;;;28.33;16.17;;;4.90;99.90;;;;;;5083544;28;20361;-63
2021/11/26 10:12:02;;;;;;;29.67;17.33;;;5.20;99.90;;;;;;5076891;28;20070;-62
2021/11/26 10:14:37;;;;;;;35.22;17.73;;;5.70;99.90;;;;;;5066894;28;20060;-63
2021/11/26 10:17:14;;;;;;;26.75;15.05;;;6.90;99.90;;;;;;5078858;28;20036;-63
2021/11/26 10:19:56;;;;;;;30.27;16.23;;;6.20;99.90;;;;;;5078735;28;20025;-61
2021/11/26 10:22:26;;;;;;;34.40;18.27;;;5.80;99.90;;;;;;5076921;28;20055;-61
2021/11/26 10:25:19;;;;;;;30.48;17.17;;;5.50;99.90;;;;;;5058914;28;20426;-64
2021/11/26 10:27:46;;;;;;;29.63;16.85;;;5.10;99.90;;;;;;5077533;28;20111;-65
2021/11/26 10:30:20;;;;;;;55.20;23.60;;;4.90;99.90;;;;;;5068851;28;20040;-61
2021/11/26 10:33:02;;;;;;;40.85;19.05;;;5.80;99.90;;;;;;5085728;28;20024;-67
2021/11/26 10:35:40;;;;;;;28.67;16.85;;;9.30;99.90;;;;;;5077315;28;20036;-64
2021/11/26 10:38:15;;;;;;;29.15;16.38;;;8.10;99.90;;;;;;5081888;28;20094;-63
2021/11/26 10:40:48;;;;;;;28.10;15.25;;;6.40;99.90;;;;;;5095495;28;20024;-62
2021/11/26 10:43:20;;;;;;;27.70;16.75;;;5.80;99.90;;;;;;5082903;28;20453;-62
2021/11/26 10:46:04;;;;;;;30.92;15.98;;;5.40;99.90;;;;;;5095374;28;20138;-63
2021/11/26 10:51:34;;;;;;;30.00;16.73;;;5.30;99.90;;;;;;5082123;28;20025;-63
2021/11/26 11:00:04;;;;;;;30.92;17.08;;;4.70;99.90;;;;;;5089512;28;20044;-63
2021/11/26 11:02:40;;;;;;;28.25;17.27;;;4.70;99.90;;;;;;5092569;28;20035;-62
2021/11/26 11:05:09;;;;;;;31.08;17.05;;;4.80;99.90;;;;;;5092964;28;20031;-62
2021/11/26 11:07:45;;;;;;;35.63;18.10;;;4.80;99.90;;;;;;5085510;28;20016;-63
2021/11/26 11:10:28;;;;;;;34.20;19.73;;;4.70;99.90;;;;;;5086497;28;20024;-62
2021/11/26 11:12:54;;;;;;;31.40;17.52;;;4.60;99.90;;;;;;5064626;28;20452;-62
2021/11/26 11:15:21;;;;;;;35.22;18.25;;;4.60;99.90;;;;;;5091772;28;20068;-64
2021/11/26 11:17:48;;;;;;;29.67;16.60;;;4.70;99.90;;;;;;5092443;28;20091;-64
2021/11/26 11:20:18;;;;;;;33.33;16.70;;;4.60;99.90;;;;;;5092054;28;20047;-62
2021/11/26 11:22:46;;;;;;;34.78;19.30;;;4.60;99.90;;;;;;5082302;28;20491;-62
2021/11/26 11:25:16;;;;;;;36.35;19.75;;;4.40;99.90;;;;;;5075566;28;20036;-61
2021/11/26 11:27:42;;;;;;;56.28;25.80;;;4.70;99.90;;;;;;5075435;28;20473;-63
2021/11/26 11:30:10;;;;;;;44.80;21.35;;;7.10;99.90;;;;;;5074667;28;20028;-62
2021/11/26 11:32:38;;;;;;;33.97;18.20;;;7.60;99.90;;;;;;5091398;28;20028;-62
2021/11/26 11:35:09;;;;;;;31.63;18.13;;;8.30;99.90;;;;;;5091430;28;20040;-63
2021/11/26 11:37:35;;;;;;;33.88;17.65;;;8.50;99.90;;;;;;5070127;28;20032;-62
2021/11/26 11:40:06;;;;;;;35.22;18.20;;;8.50;99.90;;;;;;5072392;28;20043;-64
2021/11/26 11:42:44;;;;;;;35.22;17.73;;;7.00;99.90;;;;;;5072995;28;20013;-64
2021/11/26 11:45:21;;;;;;;31.42;17.85;;;6.10;99.90;;;;;;5053741;28;20114;-64
2021/11/26 11:47:53;;;;;;;38.05;19.52;;;5.70;99.90;;;;;;5081153;28;20429;-62
2021/11/26 11:50:27;;;;;;;34.45;17.63;;;5.50;99.90;;;;;;5083556;28;20020;-64
2021/11/26 11:53:00;;;;;;;33.47;19.40;;;5.30;99.90;;;;;;5090960;28;20100;-62
2021/11/26 11:55:37;;;;;;;50.08;22.05;;;5.00;99.90;;;;;;5069035;28;20112;-64
2021/11/26 11:58:12;;;;;;;37.35;20.58;;;5.00;99.90;;;;;;5080960;28;20571;-64
2021/11/26 12:00:39;;;;;;;39.20;20.98;;;4.70;99.90;;;;;;5072347;28;20024;-62
2021/11/26 12:03:19;;;;;;;38.08;21.35;;;4.60;99.90;;;;;;5090152;28;20099;-62
2021/11/26 12:06:05;;;;;;;41.22;21.17;;;4.50;99.90;;;;;;5087553;28;20465;-63
2021/11/26 12:08:42;;;;;;;40.28;21.90;;;4.50;99.90;;;;;;5089509;28;20451;-63
2021/11/26 12:11:08;;;;;;;40.42;21.02;;;4.40;99.90;;;;;;5088268;28;20445;-62
2021/11/26 12:13:36;;;;;;;42.17;22.35;;;4.40;99.90;;;;;;5079332;28;20075;-63
2021/11/26 12:16:07;;;;;;;45.03;22.42;;;4.40;99.90;;;;;;5058932;28;20047;-62
2021/11/26 12:18:47;;;;;;;46.55;23.77;;;4.40;99.90;;;;;;5068988;28;20035;-63
2021/11/26 12:21:18;;;;;;;39.97;21.10;;;4.30;99.90;;;;;;5058585;28;20071;-62
2021/11/26 12:23:52;;;;;;;43.67;23.05;;;4.20;99.90;;;;;;5067749;28;20020;-63
2021/11/26 12:26:26;;;;;;;42.33;22.10;;;4.20;99.90;;;;;;5068645;28;20075;-63
2021/11/26 12:28:56;;;;;;;41.90;22.73;;;4.00;99.90;;;;;;5089350;28;20107;-63
2021/11/26 12:31:34;;;;;;;41.92;22.88;;;4.00;99.90;;;;;;5089436;28;20045;-62
2021/11/26 12:34:11;;;;;;;45.15;24.30;;;4.00;99.90;;;;;;5082678;28;20044;-63
2021/11/26 12:36:55;;;;;;;44.42;21.85;;;4.10;99.90;;;;;;5090099;28;20047;-63
2021/11/26 12:39:27;;;;;;;43.30;23.38;;;4.10;99.90;;;;;;5079044;28;20020;-63
2021/11/26 12:41:58;;;;;;;41.35;23.23;;;4.10;99.90;;;;;;5068510;28;20111;-64
2021/11/26 12:44:28;;;;;;;40.28;22.52;;;4.20;99.90;;;;;;5053721;28;20036;-63
2021/11/26 12:46:58;;;;;;;43.30;22.05;;;4.10;99.90;;;;;;5083536;28;20038;-62